Time;durP1;ratioP1;P1;durP2;ratioP2;P2;SDS_P1;SDS_P2;PMS_P1;PMS_P2;Temp;Humidity;BMP_temperature;BMP_pressure;BME280_temperature;BME280_humidity;BME280_pressure;Samples;Min_cycle;Max_cycle;Signal;HPM_P1;HPM_P2
2022/07/01 00:00:22;;;;;;;26.60;24.80;;;;;;;;;;5092904;28;20452;-75
2022/07/01 00:02:50;;;;;;;25.03;23.53;;;;;;;;;;5092869;28;20441;-74
2022/07/01 00:05:18;;;;;;;25.80;24.20;;;;;;;;;;5092525;28;20409;-75
2022/07/01 00:07:45;;;;;;;26.03;24.63;;;;;;;;;;5092688;28;20400;-74
2022/07/01 00:10:12;;;;;;;25.83;24.33;;;;;;;;;;5092541;28;20954;-74
2022/07/01 00:12:39;;;;;;;25.00;23.50;;;;;;;;;;5092702;28;20433;-75
2022/07/01 00:15:07;;;;;;;25.63;24.20;;;;;;;;;;5092594;28;20923;-74
2022/07/01 00:17:35;;;;;;;25.10;23.57;;;;;;;;;;5092778;28;20410;-75
2022/07/01 00:20:04;;;;;;;25.50;24.07;;;;;;;;;;5092405;28;20859;-74
2022/07/01 00:22:31;;;;;;;23.40;22.10;;;;;;;;;;5092434;28;20412;-75
2022/07/01 00:24:58;;;;;;;23.43;22.13;;;;;;;;;;5092749;28;20412;-74
2022/07/01 00:27:25;;;;;;;24.47;23.07;;;;;;;;;;5092426;28;20468;-74
2022/07/01 00:29:53;;;;;;;24.50;23.10;;;;;;;;;;5092688;28;20424;-74
2022/07/01 00:32:20;;;;;;;24.30;23.00;;;;;;;;;;5092761;28;20457;-74
2022/07/01 00:34:47;;;;;;;22.67;21.37;;;;;;;;;;5092703;28;20445;-74
2022/07/01 00:37:16;;;;;;;21.90;20.80;;;;;;;;;;5092712;28;20440;-74
2022/07/01 00:39:43;;;;;;;23.13;21.93;;;;;;;;;;5092186;28;20446;-74
2022/07/01 00:42:11;;;;;;;23.20;21.90;;;;;;;;;;5092665;28;20783;-74
2022/07/01 00:44:38;;;;;;;23.77;22.27;;;;;;;;;;5092859;28;20416;-74
2022/07/01 00:47:10;;;;;;;22.27;21.07;;;;;;;;;;5092371;28;20444;-74
2022/07/01 00:49:37;;;;;;;23.27;21.97;;;;;;;;;;5091999;28;20795;-74
2022/07/01 00:52:05;;;;;;;21.77;20.57;;;;;;;;;;5092569;28;20432;-74
2022/07/01 00:54:36;;;;;;;22.50;21.20;;;;;;;;;;5092512;28;20417;-74
2022/07/01 00:57:07;;;;;;;22.33;21.03;;;;;;;;;;5092176;28;20416;-75
2022/07/01 00:59:35;;;;;;;21.70;20.50;;;;;;;;;;5092010;28;20416;-74
2022/07/01 01:02:03;;;;;;;21.17;20.17;;;;;;;;;;5092355;28;20479;-74
2022/07/01 01:04:30;;;;;;;22.33;21.13;;;;;;;;;;5092378;28;20420;-74
2022/07/01 01:06:57;;;;;;;22.70;21.40;;;;;;;;;;5092321;28;20444;-74
2022/07/01 01:09:25;;;;;;;22.57;21.27;;;;;;;;;;5092218;28;20416;-74
2022/07/01 01:11:54;;;;;;;21.93;20.67;;;;;;;;;;5092066;28;20908;-74
2022/07/01 01:14:21;;;;;;;21.93;20.67;;;;;;;;;;5092541;28;20443;-74
2022/07/01 01:16:49;;;;;;;23.33;21.70;;;;;;;;;;5093920;28;20909;-74
2022/07/01 01:19:16;;;;;;;22.57;21.33;;;;;;;;;;5095467;28;20881;-74
2022/07/01 01:21:45;;;;;;;23.63;22.33;;;;;;;;;;5095430;28;20852;-74
2022/07/01 01:24:12;;;;;;;23.90;22.50;;;;;;;;;;5095876;28;20397;-74
2022/07/01 01:26:40;;;;;;;24.00;22.50;;;;;;;;;;5095740;28;20420;-74
2022/07/01 01:29:08;;;;;;;23.30;22.00;;;;;;;;;;5095369;28;20412;-74
2022/07/01 01:31:35;;;;;;;23.40;22.00;;;;;;;;;;5095673;28;20795;-74
2022/07/01 01:34:03;;;;;;;21.73;20.53;;;;;;;;;;5095316;28;20442;-74
2022/07/01 01:36:30;;;;;;;22.80;21.40;;;;;;;;;;5095509;28;20420;-74
2022/07/01 01:39:01;;;;;;;22.27;21.07;;;;;;;;;;5095561;28;20405;-74
2022/07/01 01:41:29;;;;;;;22.53;21.33;;;;;;;;;;5095076;28;20491;-74
2022/07/01 01:43:56;;;;;;;22.33;21.03;;;;;;;;;;5095182;28;20833;-74
2022/07/01 01:46:23;;;;;;;21.40;20.20;;;;;;;;;;5095330;28;20444;-74
2022/07/01 01:48:52;;;;;;;19.93;18.93;;;;;;;;;;5094889;28;20455;-74
2022/07/01 01:51:20;;;;;;;22.27;21.07;;;;;;;;;;5095431;28;20441;-74
2022/07/01 01:53:47;;;;;;;20.90;19.73;;;;;;;;;;5094907;28;20915;-74
2022/07/01 01:56:16;;;;;;;22.60;21.40;;;;;;;;;;5095183;28;20437;-74
2022/07/01 01:58:44;;;;;;;21.83;20.63;;;;;;;;;;5095171;28;20408;-74
2022/07/01 02:01:11;;;;;;;21.33;20.13;;;;;;;;;;5094993;28;20448;-74
2022/07/01 02:03:39;;;;;;;21.50;20.17;;;;;;;;;;5094743;28;20416;-74
2022/07/01 02:06:06;;;;;;;22.17;20.97;;;;;;;;;;5095195;28;20419;-74
2022/07/01 02:08:34;;;;;;;21.57;20.37;;;;;;;;;;5095085;28;20450;-74
2022/07/01 02:11:02;;;;;;;21.13;20.13;;;;;;;;;;5094598;28;20901;-74
2022/07/01 02:13:31;;;;;;;21.37;20.37;;;;;;;;;;5094708;28;20456;-74
2022/07/01 02:15:58;;;;;;;22.00;20.70;;;;;;;;;;5094808;28;20433;-74
2022/07/01 02:18:25;;;;;;;21.40;20.30;;;;;;;;;;5094607;28;20490;-74
2022/07/01 02:20:53;;;;;;;21.73;20.57;;;;;;;;;;5094282;28;20973;-74
2022/07/01 02:23:21;;;;;;;21.80;20.70;;;;;;;;;;5094623;28;20442;-74
2022/07/01 02:25:49;;;;;;;21.67;20.60;;;;;;;;;;5094734;28;20419;-74
2022/07/01 02:28:16;;;;;;;22.20;21.10;;;;;;;;;;5094168;28;20942;-74
2022/07/01 02:30:45;;;;;;;22.43;21.13;;;;;;;;;;5094128;28;20407;-74
2022/07/01 02:33:12;;;;;;;22.27;20.90;;;;;;;;;;5094720;28;20441;-74
2022/07/01 02:35:41;;;;;;;21.63;20.53;;;;;;;;;;5094427;28;20446;-74
2022/07/01 02:38:09;;;;;;;21.60;20.40;;;;;;;;;;5094087;28;20799;-74
2022/07/01 02:40:37;;;;;;;22.93;21.73;;;;;;;;;;5094393;28;20446;-74
2022/07/01 02:43:05;;;;;;;21.47;20.20;;;;;;;;;;5094082;28;20451;-74
2022/07/01 02:45:32;;;;;;;21.53;20.37;;;;;;;;;;5093936;28;20750;-74
2022/07/01 02:48:01;;;;;;;20.53;19.50;;;;;;;;;;5093743;28;20444;-76
2022/07/01 02:50:29;;;;;;;21.93;20.83;;;;;;;;;;5094241;28;20451;-74
2022/07/01 02:52:56;;;;;;;23.57;22.17;;;;;;;;;;5094029;28;20442;-74
2022/07/01 02:55:24;;;;;;;23.23;21.93;;;;;;;;;;5093736;28;20445;-75
2022/07/01 02:57:51;;;;;;;23.03;21.63;;;;;;;;;;5094301;28;20444;-74
2022/07/01 03:00:19;;;;;;;23.23;21.83;;;;;;;;;;5093585;28;20872;-74
2022/07/01 03:02:47;;;;;;;23.60;22.30;;;;;;;;;;5093635;28;20436;-74
2022/07/01 03:05:16;;;;;;;23.40;22.10;;;;;;;;;;5093937;28;20457;-74
2022/07/01 03:07:43;;;;;;;25.53;23.83;;;;;;;;;;5093578;28;20416;-74
2022/07/01 03:10:11;;;;;;;24.50;23.10;;;;;;;;;;5093539;28;20415;-74
2022/07/01 03:12:39;;;;;;;24.20;22.70;;;;;;;;;;5093720;28;20405;-74
2022/07/01 03:15:08;;;;;;;24.30;22.80;;;;;;;;;;5093402;28;20452;-74
2022/07/01 03:17:36;;;;;;;24.33;22.93;;;;;;;;;;5093584;28;20437;-74
2022/07/01 03:20:04;;;;;;;28.07;26.17;;;;;;;;;;5093601;28;20503;-74
2022/07/01 03:22:33;;;;;;;27.90;25.90;;;;;;;;;;5093464;28;20489;-74
2022/07/01 03:25:00;;;;;;;30.00;27.90;;;;;;;;;;5093503;28;20413;-74
2022/07/01 03:27:28;;;;;;;29.30;27.23;;;;;;;;;;5093487;28;20430;-74
2022/07/01 03:29:56;;;;;;;28.80;26.77;;;;;;;;;;5093104;28;20918;-74
2022/07/01 03:32:23;;;;;;;28.53;26.37;;;;;;;;;;5093194;28;20401;-74
2022/07/01 03:34:51;;;;;;;29.83;27.70;;;;;;;;;;5092974;28;20423;-74
2022/07/01 03:37:19;;;;;;;30.47;28.27;;;;;;;;;;5093304;28;20404;-74
2022/07/01 03:39:48;;;;;;;33.17;30.67;;;;;;;;;;5092321;28;20437;-74
2022/07/01 03:42:16;;;;;;;32.63;30.20;;;;;;;;;;5092780;28;20471;-74
2022/07/01 03:44:45;;;;;;;31.60;29.23;;;;;;;;;;5093163;28;20909;-74
2022/07/01 03:47:12;;;;;;;29.07;26.90;;;;;;;;;;5092699;28;20864;-73
2022/07/01 03:49:39;;;;;;;30.07;27.90;;;;;;;;;;5092779;28;20496;-73
2022/07/01 03:52:07;;;;;;;33.27;30.83;;;;;;;;;;5093121;28;20404;-73
2022/07/01 03:54:37;;;;;;;33.60;31.00;;;;;;;;;;5092803;28;20438;-74
2022/07/01 03:57:07;;;;;;;33.03;30.43;;;;;;;;;;5092741;28;20451;-74
2022/07/01 03:59:36;;;;;;;30.33;27.87;;;;;;;;;;5092687;28;20450;-72
2022/07/01 04:02:04;;;;;;;33.53;31.03;;;;;;;;;;5092809;28;20966;-72
2022/07/01 04:04:31;;;;;;;34.77;31.90;;;;;;;;;;5092664;28;20437;-73
2022/07/01 04:06:59;;;;;;;34.00;31.40;;;;;;;;;;5093030;28;20457;-74
2022/07/01 04:09:27;;;;;;;35.43;32.53;;;;;;;;;;5092897;28;20437;-74
2022/07/01 04:11:55;;;;;;;37.60;34.70;;;;;;;;;;5093023;28;20429;-72
2022/07/01 04:14:25;;;;;;;36.77;33.60;;;;;;;;;;5092889;28;20433;-73
2022/07/01 04:16:53;;;;;;;35.20;32.30;;;;;;;;;;5092624;28;20978;-73
2022/07/01 04:19:20;;;;;;;36.43;33.30;;;;;;;;;;5092852;28;20436;-73
2022/07/01 04:24:41;;;;;;;37.43;34.13;;;;;;;;;;5030099;28;20503;-74
2022/07/01 04:27:09;;;;;;;38.07;34.83;;;;;;;;;;5030060;28;20436;-74
2022/07/01 04:29:38;;;;;;;35.27;32.37;;;;;;;;;;5013891;28;20961;-74
2022/07/01 04:32:05;;;;;;;33.23;30.57;;;;;;;;;;5030020;28;20448;-73
2022/07/01 04:34:33;;;;;;;35.17;32.37;;;;;;;;;;5029993;28;20427;-73
2022/07/01 04:37:00;;;;;;;35.50;32.70;;;;;;;;;;5030020;28;20457;-73
2022/07/01 04:39:27;;;;;;;36.07;32.87;;;;;;;;;;5029979;28;20411;-73
2022/07/01 04:41:59;;;;;;;37.33;34.27;;;;;;;;;;5029945;28;20557;-73
2022/07/01 04:44:28;;;;;;;37.70;34.60;;;;;;;;;;5025232;28;20507;-72
2022/07/01 04:46:57;;;;;;;37.03;33.93;;;;;;;;;;5018453;28;20454;-72
2022/07/01 04:49:24;;;;;;;37.07;33.97;;;;;;;;;;5009879;28;20463;-72
2022/07/01 04:51:52;;;;;;;35.70;32.67;;;;;;;;;;5013738;28;20441;-72
2022/07/01 04:54:19;;;;;;;37.03;33.93;;;;;;;;;;5014115;28;20427;-73
2022/07/01 04:56:47;;;;;;;36.60;33.23;;;;;;;;;;5013743;28;20411;-73
2022/07/01 04:59:15;;;;;;;35.90;32.80;;;;;;;;;;4997278;28;21032;-76
2022/07/01 05:01:42;;;;;;;34.23;31.50;;;;;;;;;;5075462;28;20993;-73
2022/07/01 05:04:11;;;;;;;34.67;31.77;;;;;;;;;;5082543;28;20439;-74
2022/07/01 05:06:39;;;;;;;36.30;33.13;;;;;;;;;;5078353;28;20943;-74
2022/07/01 05:09:06;;;;;;;33.40;30.70;;;;;;;;;;5075749;28;20443;-75
2022/07/01 05:11:34;;;;;;;34.10;31.20;;;;;;;;;;5075560;28;20475;-73
2022/07/01 05:14:01;;;;;;;33.70;30.80;;;;;;;;;;5083432;28;20442;-72
2022/07/01 05:16:28;;;;;;;32.07;29.40;;;;;;;;;;5096132;28;20448;-72
2022/07/01 05:21:57;;;;;;;35.30;32.30;;;;;;;;;;5095772;28;20487;-76
2022/07/01 05:24:25;;;;;;;33.87;30.93;;;;;;;;;;5095537;28;20930;-76
2022/07/01 05:26:52;;;;;;;38.07;34.80;;;;;;;;;;5096005;28;20408;-76
2022/07/01 05:29:20;;;;;;;34.20;31.50;;;;;;;;;;5095663;28;20408;-71
2022/07/01 05:31:47;;;;;;;37.60;34.40;;;;;;;;;;5095375;28;20433;-71
2022/07/01 05:34:15;;;;;;;36.37;33.20;;;;;;;;;;5095355;28;20407;-70
2022/07/01 05:36:43;;;;;;;38.80;35.10;;;;;;;;;;5095168;28;20823;-71
2022/07/01 05:39:11;;;;;;;39.60;36.00;;;;;;;;;;5095187;28;20420;-70
2022/07/01 05:41:39;;;;;;;36.00;32.77;;;;;;;;;;5095532;28;20476;-69
2022/07/01 05:44:06;;;;;;;36.73;33.47;;;;;;;;;;5094975;28;20408;-70
2022/07/01 05:46:33;;;;;;;38.87;35.37;;;;;;;;;;5095141;28;20473;-70
2022/07/01 05:49:00;;;;;;;37.60;34.20;;;;;;;;;;5094767;28;20451;-70
2022/07/01 05:51:28;;;;;;;37.93;34.73;;;;;;;;;;5095233;28;20482;-70
2022/07/01 05:53:57;;;;;;;39.17;35.73;;;;;;;;;;5095016;28;20424;-70
2022/07/01 05:56:25;;;;;;;38.23;34.63;;;;;;;;;;5094746;28;20457;-70
2022/07/01 05:58:53;;;;;;;38.07;34.60;;;;;;;;;;5094490;28;20446;-70
2022/07/01 06:01:20;;;;;;;41.80;37.73;;;;;;;;;;5094502;28;20928;-70
2022/07/01 06:03:47;;;;;;;41.57;37.77;;;;;;;;;;5094471;28;20881;-70
2022/07/01 06:06:15;;;;;;;40.63;36.47;;;;;;;;;;5094948;28;20423;-70
2022/07/01 06:08:42;;;;;;;40.13;36.43;;;;;;;;;;5094896;28;20499;-71
2022/07/01 06:11:10;;;;;;;39.23;35.53;;;;;;;;;;5094907;28;20419;-71
2022/07/01 06:13:38;;;;;;;42.60;38.37;;;;;;;;;;5094827;28;20762;-68
2022/07/01 06:16:06;;;;;;;43.27;39.20;;;;;;;;;;5094662;28;20420;-71
2022/07/01 06:18:33;;;;;;;40.33;36.50;;;;;;;;;;5094526;28;20440;-68
2022/07/01 06:21:00;;;;;;;42.47;38.37;;;;;;;;;;5094121;28;20418;-68
2022/07/01 06:23:28;;;;;;;42.37;38.47;;;;;;;;;;5094282;28;20452;-69
2022/07/01 06:25:56;;;;;;;42.00;37.90;;;;;;;;;;5094609;28;20437;-68
2022/07/01 06:28:29;;;;;;;43.10;39.13;;;;;;;;;;5094097;28;20923;-68
2022/07/01 06:30:56;;;;;;;43.77;39.57;;;;;;;;;;5094475;28;20409;-68
2022/07/01 06:33:24;;;;;;;46.30;41.90;;;;;;;;;;5094316;28;20415;-68
2022/07/01 06:35:51;;;;;;;45.03;40.60;;;;;;;;;;5094414;28;20436;-68
2022/07/01 06:38:18;;;;;;;41.43;37.47;;;;;;;;;;5094492;28;20498;-68
2022/07/01 06:41:26;;;;;;;45.00;40.80;;;;;;;;;;5094020;28;20413;-68
2022/07/01 06:43:36;;;;;;;44.07;40.00;;;;;;;;;;5093765;28;20488;-68
2022/07/01 06:46:04;;;;;;;42.00;38.07;;;;;;;;;;5094068;28;20477;-68
2022/07/01 06:48:35;;;;;;;46.23;41.83;;;;;;;;;;5093888;28;20492;-68
2022/07/01 06:51:02;;;;;;;44.20;39.87;;;;;;;;;;5093664;28;20928;-68
2022/07/01 06:53:30;;;;;;;45.33;41.13;;;;;;;;;;5094126;28;20445;-68
2022/07/01 06:55:58;;;;;;;47.60;43.17;;;;;;;;;;5093874;28;20457;-68
2022/07/01 06:58:25;;;;;;;47.57;43.07;;;;;;;;;;5093887;28;20449;-68
2022/07/01 07:00:54;;;;;;;40.17;36.30;;;;;;;;;;5083281;28;20448;-68
2022/07/01 07:03:21;;;;;;;42.00;38.67;;;;;;;;;;5083847;28;20449;-68
2022/07/01 07:05:49;;;;;;;42.17;38.27;;;;;;;;;;5079101;28;20430;-67
2022/07/01 07:08:16;;;;;;;37.73;34.77;;;;;;;;;;5073569;28;20436;-69
2022/07/01 07:10:43;;;;;;;38.47;35.33;;;;;;;;;;5073023;28;20959;-70
2022/07/01 07:13:11;;;;;;;39.80;36.50;;;;;;;;;;5072749;28;20443;-68
2022/07/01 07:15:41;;;;;;;36.07;33.00;;;;;;;;;;5072656;28;20417;-68
2022/07/01 07:18:09;;;;;;;37.17;34.33;;;;;;;;;;5073341;28;20409;-67
2022/07/01 07:20:37;;;;;;;36.40;33.63;;;;;;;;;;5072947;28;20413;-67
2022/07/01 07:23:05;;;;;;;35.73;32.83;;;;;;;;;;5073179;28;20478;-68
2022/07/01 07:25:32;;;;;;;36.17;33.27;;;;;;;;;;5073124;28;20443;-68
2022/07/01 07:27:59;;;;;;;37.43;34.43;;;;;;;;;;5072815;28;20926;-69
2022/07/01 07:30:27;;;;;;;36.50;33.90;;;;;;;;;;5073004;28;20412;-68
2022/07/01 07:32:54;;;;;;;35.80;32.90;;;;;;;;;;5073118;28;20413;-71
2022/07/01 07:35:23;;;;;;;37.97;34.73;;;;;;;;;;5072665;28;20893;-68
2022/07/01 07:37:55;;;;;;;36.80;33.80;;;;;;;;;;5072742;28;20903;-68
2022/07/01 07:40:22;;;;;;;38.10;35.30;;;;;;;;;;5072442;28;20405;-68
2022/07/01 07:42:50;;;;;;;35.40;32.60;;;;;;;;;;5072574;28;20460;-69
2022/07/01 07:45:17;;;;;;;33.50;30.70;;;;;;;;;;5072961;28;20476;-68
2022/07/01 07:47:45;;;;;;;37.03;34.17;;;;;;;;;;5072252;28;20443;-69
2022/07/01 07:50:13;;;;;;;34.90;32.00;;;;;;;;;;5080295;28;20859;-68
2022/07/01 07:52:41;;;;;;;39.17;36.03;;;;;;;;;;5093395;28;20750;-68
2022/07/01 07:55:09;;;;;;;38.77;35.77;;;;;;;;;;5093096;28;20743;-69
2022/07/01 07:57:37;;;;;;;36.40;33.30;;;;;;;;;;5092697;28;20966;-68
2022/07/01 08:00:05;;;;;;;41.80;38.30;;;;;;;;;;5092915;28;20415;-68
2022/07/01 08:02:32;;;;;;;41.93;38.17;;;;;;;;;;5092566;28;20866;-68
2022/07/01 08:04:59;;;;;;;37.03;34.10;;;;;;;;;;5092695;28;20416;-68
2022/07/01 08:07:27;;;;;;;38.87;35.70;;;;;;;;;;5092954;28;20788;-67
2022/07/01 08:09:56;;;;;;;40.83;37.53;;;;;;;;;;5092998;28;20431;-69
2022/07/01 08:12:25;;;;;;;36.83;33.90;;;;;;;;;;5092846;28;20445;-68
2022/07/01 08:14:53;;;;;;;38.33;35.13;;;;;;;;;;5092820;28;20950;-68
2022/07/01 08:17:20;;;;;;;38.50;35.17;;;;;;;;;;5092642;28;20467;-68
2022/07/01 08:19:49;;;;;;;38.23;35.37;;;;;;;;;;5092449;28;20434;-68
2022/07/01 08:22:16;;;;;;;40.40;37.30;;;;;;;;;;5092743;28;20413;-68
2022/07/01 08:24:43;;;;;;;41.20;38.00;;;;;;;;;;5093117;28;20415;-68
2022/07/01 08:27:12;;;;;;;38.23;34.97;;;;;;;;;;5096969;28;20904;-68
2022/07/01 08:29:39;;;;;;;41.03;37.43;;;;;;;;;;5096773;28;20438;-68
2022/07/01 08:32:07;;;;;;;38.10;35.03;;;;;;;;;;5096735;28;20408;-68
2022/07/01 08:34:35;;;;;;;37.27;34.37;;;;;;;;;;5096659;28;20426;-69
2022/07/01 08:37:02;;;;;;;37.20;34.27;;;;;;;;;;5096337;28;20911;-69
2022/07/01 08:39:30;;;;;;;36.87;33.83;;;;;;;;;;5096300;28;20416;-69
2022/07/01 08:41:57;;;;;;;38.27;35.40;;;;;;;;;;5096347;28;20485;-70
2022/07/01 08:44:27;;;;;;;37.10;34.43;;;;;;;;;;5096507;28;20456;-69
2022/07/01 08:46:54;;;;;;;37.37;34.43;;;;;;;;;;5096282;28;20436;-69
2022/07/01 08:49:23;;;;;;;37.17;34.17;;;;;;;;;;5096037;28;20816;-69
2022/07/01 08:51:50;;;;;;;35.57;32.97;;;;;;;;;;5096137;28;20471;-69
2022/07/01 08:54:17;;;;;;;34.40;31.83;;;;;;;;;;5096354;28;20419;-69
2022/07/01 08:56:46;;;;;;;34.77;32.37;;;;;;;;;;5096332;28;20420;-71
2022/07/01 08:59:14;;;;;;;34.53;32.03;;;;;;;;;;5096359;28;20436;-68
2022/07/01 09:01:43;;;;;;;32.67;30.30;;;;;;;;;;5095782;28;20855;-69
2022/07/01 09:04:17;;;;;;;32.40;29.93;;;;;;;;;;5095866;28;20485;-69
2022/07/01 09:06:45;;;;;;;34.33;31.83;;;;;;;;;;5096146;28;20753;-68
2022/07/01 09:09:13;;;;;;;33.97;31.50;;;;;;;;;;5095716;28;20481;-69
2022/07/01 09:11:45;;;;;;;32.60;30.30;;;;;;;;;;5096131;28;20487;-69
2022/07/01 09:14:14;;;;;;;31.73;29.53;;;;;;;;;;5095822;28;20415;-69
2022/07/01 09:16:43;;;;;;;31.00;28.97;;;;;;;;;;5096008;28;20437;-69
2022/07/01 09:19:11;;;;;;;30.43;28.23;;;;;;;;;;5095504;28;20912;-69
2022/07/01 09:21:38;;;;;;;32.43;30.03;;;;;;;;;;5096088;28;20420;-69
2022/07/01 09:24:06;;;;;;;31.90;29.70;;;;;;;;;;5095732;28;20521;-69
2022/07/01 09:26:34;;;;;;;32.87;30.50;;;;;;;;;;5095774;28;20562;-69
2022/07/01 09:29:03;;;;;;;33.70;31.37;;;;;;;;;;5095816;28;20793;-69
2022/07/01 09:31:34;;;;;;;33.80;31.50;;;;;;;;;;5095395;28;20446;-69
2022/07/01 09:34:08;;;;;;;35.20;32.70;;;;;;;;;;5095417;28;20915;-70
2022/07/01 09:36:40;;;;;;;33.07;30.47;;;;;;;;;;5094654;28;20437;-69
2022/07/01 09:39:07;;;;;;;32.03;29.83;;;;;;;;;;5095471;28;20443;-70
2022/07/01 09:41:38;;;;;;;33.10;30.80;;;;;;;;;;5095576;28;20442;-69
2022/07/01 09:44:06;;;;;;;34.37;32.17;;;;;;;;;;5095253;28;20459;-69
2022/07/01 09:46:33;;;;;;;31.67;29.63;;;;;;;;;;5094934;28;20456;-68
2022/07/01 09:49:01;;;;;;;32.03;29.90;;;;;;;;;;5094853;28;20455;-69
2022/07/01 09:51:30;;;;;;;31.73;29.43;;;;;;;;;;5095142;28;20498;-68
2022/07/01 09:53:57;;;;;;;32.50;30.37;;;;;;;;;;5095154;28;20404;-69
2022/07/01 09:56:25;;;;;;;29.40;27.50;;;;;;;;;;5094813;28;20897;-69
2022/07/01 09:58:52;;;;;;;29.03;27.23;;;;;;;;;;5095061;28;20496;-69
2022/07/01 10:01:20;;;;;;;30.80;28.70;;;;;;;;;;5094809;28;20441;-69
2022/07/01 10:03:47;;;;;;;30.23;28.33;;;;;;;;;;5095009;28;20584;-68
2022/07/01 10:06:34;;;;;;;31.20;29.00;;;;;;;;;;5094114;28;20463;-68
2022/07/01 10:09:08;;;;;;;29.73;27.93;;;;;;;;;;5085093;28;20442;-69
2022/07/01 10:11:46;;;;;;;31.50;29.40;;;;;;;;;;5083558;28;20426;-69
2022/07/01 10:14:14;;;;;;;31.07;29.17;;;;;;;;;;5086268;28;20430;-69
2022/07/01 10:16:42;;;;;;;32.40;30.20;;;;;;;;;;5077207;28;20447;-69
2022/07/01 10:19:25;;;;;;;32.23;30.23;;;;;;;;;;5076950;28;20412;-69
2022/07/01 10:21:54;;;;;;;32.40;30.10;;;;;;;;;;5086362;28;20833;-69
2022/07/01 10:24:24;;;;;;;32.10;30.00;;;;;;;;;;5094398;28;20997;-69
2022/07/01 10:26:51;;;;;;;32.40;30.20;;;;;;;;;;5094316;28;20429;-69
2022/07/01 10:29:28;;;;;;;32.97;30.80;;;;;;;;;;5094178;28;20415;-69
2022/07/01 10:31:56;;;;;;;32.10;30.00;;;;;;;;;;5094148;28;20953;-70
2022/07/01 10:34:25;;;;;;;31.03;29.03;;;;;;;;;;5091136;28;20820;-69
2022/07/01 10:37:02;;;;;;;31.27;29.37;;;;;;;;;;5090443;28;20422;-69
2022/07/01 10:39:31;;;;;;;30.97;28.87;;;;;;;;;;5093807;28;20447;-69
2022/07/01 10:42:03;;;;;;;32.17;29.97;;;;;;;;;;5094129;28;20410;-70
2022/07/01 10:44:35;;;;;;;31.10;29.20;;;;;;;;;;5090382;28;21187;-70
2022/07/01 10:47:07;;;;;;;31.67;29.67;;;;;;;;;;5093434;28;20433;-71
2022/07/01 10:49:54;;;;;;;31.40;29.50;;;;;;;;;;5092974;28;20465;-70
2022/07/01 10:52:21;;;;;;;28.93;26.90;;;;;;;;;;5093713;28;20458;-70
2022/07/01 10:54:53;;;;;;;31.60;29.50;;;;;;;;;;5093524;28;20415;-70
2022/07/01 10:57:28;;;;;;;30.60;28.70;;;;;;;;;;5093131;28;20415;-70
2022/07/01 10:59:56;;;;;;;31.17;29.17;;;;;;;;;;5093249;28;20947;-70
2022/07/01 11:02:24;;;;;;;32.40;30.40;;;;;;;;;;5085096;28;20442;-70
2022/07/01 11:04:53;;;;;;;32.57;30.40;;;;;;;;;;5076082;28;20486;-70
2022/07/01 11:07:20;;;;;;;32.73;30.67;;;;;;;;;;5073009;28;20415;-70
2022/07/01 11:09:48;;;;;;;33.23;31.03;;;;;;;;;;5073000;28;20417;-70
2022/07/01 11:12:17;;;;;;;33.50;31.40;;;;;;;;;;5073294;28;20430;-69
2022/07/01 11:14:45;;;;;;;33.30;31.20;;;;;;;;;;5073169;28;20410;-70
2022/07/01 11:17:13;;;;;;;33.67;31.57;;;;;;;;;;5072939;28;20438;-70
2022/07/01 11:19:40;;;;;;;35.77;33.47;;;;;;;;;;5072878;28;20408;-74
2022/07/01 11:22:07;;;;;;;35.70;33.20;;;;;;;;;;5073295;28;20412;-70
2022/07/01 11:24:34;;;;;;;36.33;34.13;;;;;;;;;;5073027;28;20470;-70
2022/07/01 11:27:02;;;;;;;34.50;32.10;;;;;;;;;;5073138;28;20413;-70
2022/07/01 11:29:31;;;;;;;34.90;32.73;;;;;;;;;;5081709;28;20418;-70
2022/07/01 11:31:58;;;;;;;35.87;33.57;;;;;;;;;;5075602;28;20409;-70
2022/07/01 11:34:29;;;;;;;33.70;31.50;;;;;;;;;;5072992;28;20416;-69
2022/07/01 11:39:54;;;;;;;33.97;31.80;;;;;;;;;;5074763;28;20832;-69
2022/07/01 11:42:24;;;;;;;36.20;33.70;;;;;;;;;;5080543;28;20404;-69
2022/07/01 11:45:00;;;;;;;35.30;32.93;;;;;;;;;;5072314;28;20930;-70
2022/07/01 11:47:35;;;;;;;35.10;32.97;;;;;;;;;;5072270;28;20409;-69
2022/07/01 11:50:14;;;;;;;34.10;31.70;;;;;;;;;;5071877;28;20541;-69
2022/07/01 11:52:48;;;;;;;34.37;32.27;;;;;;;;;;5072594;28;20416;-69
2022/07/01 11:55:20;;;;;;;33.23;30.93;;;;;;;;;;5072364;28;20405;-70
2022/07/01 11:57:52;;;;;;;31.17;29.17;;;;;;;;;;5072694;28;20417;-69
2022/07/01 12:00:21;;;;;;;31.87;29.93;;;;;;;;;;5072084;28;20525;-70
2022/07/01 12:02:51;;;;;;;32.87;30.87;;;;;;;;;;5072767;28;20410;-70
2022/07/01 12:05:18;;;;;;;31.60;29.50;;;;;;;;;;5072908;28;20478;-70
2022/07/01 12:07:47;;;;;;;31.80;29.73;;;;;;;;;;5072944;28;20435;-70
2022/07/01 12:10:16;;;;;;;31.67;29.57;;;;;;;;;;5072354;28;20429;-70
2022/07/01 12:12:43;;;;;;;31.73;29.83;;;;;;;;;;5072739;28;20442;-71
2022/07/01 12:15:14;;;;;;;33.67;30.93;;;;;;;;;;5072350;28;20442;-71
2022/07/01 12:17:43;;;;;;;30.73;28.50;;;;;;;;;;5072114;28;20410;-70
2022/07/01 12:20:11;;;;;;;32.17;30.00;;;;;;;;;;5072304;28;20417;-70
2022/07/01 12:22:38;;;;;;;32.80;30.47;;;;;;;;;;5072336;28;20416;-70
2022/07/01 12:25:07;;;;;;;31.33;29.20;;;;;;;;;;5072570;28;20459;-70
2022/07/01 12:27:35;;;;;;;33.20;31.20;;;;;;;;;;5072288;28;20439;-70
2022/07/01 12:30:03;;;;;;;32.53;30.53;;;;;;;;;;5072310;28;20415;-70
2022/07/01 12:32:31;;;;;;;32.77;30.07;;;;;;;;;;5072604;28;20529;-70
2022/07/01 12:35:00;;;;;;;31.63;29.60;;;;;;;;;;5072513;28;20488;-70
2022/07/01 12:37:29;;;;;;;33.23;31.13;;;;;;;;;;5072553;28;20458;-70
2022/07/01 12:39:57;;;;;;;31.53;29.43;;;;;;;;;;5072398;28;20442;-70
2022/07/01 12:42:25;;;;;;;33.07;30.77;;;;;;;;;;5072571;28;20458;-70
2022/07/01 12:44:55;;;;;;;32.23;30.13;;;;;;;;;;5072471;28;20490;-71
2022/07/01 12:47:26;;;;;;;32.07;29.97;;;;;;;;;;5071978;28;20401;-71
2022/07/01 12:50:09;;;;;;;32.83;30.73;;;;;;;;;;5071856;28;20463;-71
2022/07/01 12:52:38;;;;;;;31.57;29.53;;;;;;;;;;5072053;28;20473;-72
2022/07/01 12:55:14;;;;;;;31.77;29.77;;;;;;;;;;5072028;28;20439;-70
2022/07/01 12:57:41;;;;;;;32.07;30.07;;;;;;;;;;5072352;28;20420;-70
2022/07/01 13:00:09;;;;;;;30.63;28.63;;;;;;;;;;5072045;28;20866;-70
2022/07/01 13:02:36;;;;;;;31.13;29.23;;;;;;;;;;5072235;28;20434;-71
2022/07/01 13:05:03;;;;;;;31.23;29.23;;;;;;;;;;5071869;28;20900;-70
2022/07/01 13:07:31;;;;;;;30.03;28.23;;;;;;;;;;5071927;28;20445;-70
2022/07/01 13:09:59;;;;;;;29.67;27.97;;;;;;;;;;5071792;28;20445;-70
2022/07/01 13:12:27;;;;;;;29.67;27.97;;;;;;;;;;5074676;28;20416;-70
2022/07/01 13:14:54;;;;;;;28.33;26.63;;;;;;;;;;5075413;28;20916;-70
2022/07/01 13:17:22;;;;;;;29.73;27.83;;;;;;;;;;5075616;28;20427;-70
2022/07/01 13:19:49;;;;;;;29.87;28.07;;;;;;;;;;5075592;28;20448;-70
2022/07/01 13:22:17;;;;;;;29.93;28.03;;;;;;;;;;5075583;28;20417;-70
2022/07/01 13:24:44;;;;;;;30.73;28.80;;;;;;;;;;5075766;28;20485;-70
2022/07/01 13:27:13;;;;;;;31.30;29.40;;;;;;;;;;5075251;28;20413;-70
2022/07/01 13:29:40;;;;;;;30.17;28.47;;;;;;;;;;5075195;28;20806;-70
2022/07/01 13:32:08;;;;;;;30.10;28.40;;;;;;;;;;5075397;28;20413;-70
2022/07/01 13:34:35;;;;;;;29.70;28.00;;;;;;;;;;5075344;28;20448;-70
2022/07/01 13:37:03;;;;;;;30.93;29.03;;;;;;;;;;5075298;28;20473;-70
2022/07/01 13:39:30;;;;;;;31.77;29.97;;;;;;;;;;5075267;28;20417;-70
2022/07/01 13:41:57;;;;;;;32.57;30.47;;;;;;;;;;5075300;28;20444;-70
2022/07/01 13:44:26;;;;;;;31.20;29.20;;;;;;;;;;5074930;28;20944;-70
2022/07/01 13:46:54;;;;;;;29.70;27.70;;;;;;;;;;5075216;28;20413;-70
2022/07/01 13:49:21;;;;;;;29.27;27.47;;;;;;;;;;5074825;28;20457;-70
2022/07/01 13:51:48;;;;;;;30.13;28.33;;;;;;;;;;5075347;28;20439;-70
2022/07/01 13:54:16;;;;;;;29.70;27.93;;;;;;;;;;5074800;28;20413;-70
2022/07/01 13:56:45;;;;;;;29.30;27.60;;;;;;;;;;5074713;28;20445;-70
2022/07/01 13:59:12;;;;;;;31.60;29.80;;;;;;;;;;5074945;28;20412;-70
2022/07/01 14:01:41;;;;;;;29.87;28.17;;;;;;;;;;5074848;28;20439;-70
2022/07/01 14:04:09;;;;;;;29.80;28.00;;;;;;;;;;5074408;28;20451;-70
2022/07/01 14:06:36;;;;;;;29.80;27.90;;;;;;;;;;5074835;28;20440;-70
2022/07/01 14:09:04;;;;;;;31.00;29.10;;;;;;;;;;5074718;28;20430;-70
2022/07/01 14:11:31;;;;;;;30.43;28.63;;;;;;;;;;5074441;28;20486;-70
2022/07/01 14:13:59;;;;;;;30.53;28.60;;;;;;;;;;5074741;28;20413;-70
2022/07/01 14:16:29;;;;;;;30.70;28.90;;;;;;;;;;5074333;28;20900;-71
2022/07/01 14:18:58;;;;;;;30.87;28.50;;;;;;;;;;5074177;28;20433;-71
2022/07/01 14:21:26;;;;;;;28.70;27.10;;;;;;;;;;5074290;28;20886;-71
2022/07/01 14:23:53;;;;;;;29.43;27.83;;;;;;;;;;5073643;28;20419;-71
2022/07/01 14:26:20;;;;;;;29.73;27.80;;;;;;;;;;5074092;28;20442;-70
2022/07/01 14:28:48;;;;;;;28.77;26.83;;;;;;;;;;5074288;28;20449;-70
2022/07/01 14:31:15;;;;;;;29.13;27.33;;;;;;;;;;5074498;28;20417;-71